Riverdale, California
Current Conditions -  °F | °C
As of 10:56 AM on Tuesday 27 Jan 2015 (Local Time) from KNLC Reporting Station
Haze Haze  
Wind Chill: 55°   Ceiling: 5500
Heat Index: 55°   Visibility: 4mi
Dew Point: 53°   Wind: 0mph
Humidity: 93%   Direction: NA
Pressure: 30.26"   Gusts: NA
Location:  36.43°N, 119.86°W
Report Text: KNLC 271856Z 00000KT 4SM BR OVC055 13/12 A3026 RMK AO2 RAE47 SLP246 RH/93 P0001 T01280117 $
Loading
Personal Weather Stations






























Interactive Weather Map New forecast layout! Learn more

10-Day Weather Forecast

Advertisements
Track Severe Weather on mobile